createdAt,value
2022-07-30T00:00:24.960Z,6.67
2022-07-30T00:01:58.738Z,6.70
2022-07-30T00:03:31.982Z,6.70
2022-07-30T00:05:06.024Z,6.27
2022-07-30T00:06:40.018Z,6.40
2022-07-30T00:08:13.326Z,6.97
2022-07-30T00:09:48.015Z,6.30
2022-07-30T00:11:27.212Z,6.40
2022-07-30T00:13:00.964Z,6.13
2022-07-30T00:14:35.350Z,6.43
2022-07-30T00:16:08.665Z,6.40
2022-07-30T00:17:40.987Z,5.67
2022-07-30T00:19:14.673Z,6.40
2022-07-30T00:20:48.810Z,5.73
2022-07-30T00:22:22.465Z,6.17
2022-07-30T00:24:01.773Z,6.23
2022-07-30T00:25:36.898Z,6.87
2022-07-30T00:27:10.122Z,6.40
2022-07-30T00:28:43.428Z,6.33
2022-07-30T00:30:17.128Z,6.23
2022-07-30T00:31:50.405Z,6.23
2022-07-30T00:33:23.591Z,6.40
2022-07-30T00:34:56.915Z,6.50
2022-07-30T00:36:30.256Z,6.90
2022-07-30T00:38:03.705Z,6.47
2022-07-30T00:39:36.913Z,6.57
2022-07-30T00:41:11.561Z,7.00
2022-07-30T00:42:47.334Z,6.50
2022-07-30T00:44:19.572Z,6.90
2022-07-30T00:45:52.823Z,6.40
2022-07-30T00:47:26.273Z,6.63
2022-07-30T00:48:59.758Z,6.53
2022-07-30T00:50:32.963Z,6.60
2022-07-30T00:52:05.553Z,6.23
2022-07-30T00:53:39.309Z,6.33
2022-07-30T00:55:14.528Z,6.80
2022-07-30T00:56:49.751Z,6.60
2022-07-30T00:58:22.939Z,6.50
2022-07-30T00:59:55.346Z,6.20
2022-07-30T01:01:28.762Z,6.43
2022-07-30T01:03:02.135Z,6.30
2022-07-30T01:04:35.987Z,6.87
2022-07-30T01:06:14.221Z,6.60
2022-07-30T01:07:48.077Z,6.30
2022-07-30T01:09:21.263Z,6.17
2022-07-30T01:10:54.911Z,5.67
2022-07-30T01:12:30.979Z,5.93
2022-07-30T01:14:05.542Z,6.30
2022-07-30T01:15:39.869Z,6.30
2022-07-30T01:17:13.477Z,6.30
2022-07-30T01:19:05.960Z,6.30
2022-07-30T01:20:46.798Z,6.33
2022-07-30T01:22:34.750Z,6.20
2022-07-30T01:24:19.761Z,6.83
2022-07-30T01:25:59.582Z,6.40
2022-07-30T01:27:35.415Z,6.40
2022-07-30T01:29:10.433Z,6.40
2022-07-30T01:30:45.372Z,6.20
2022-07-30T01:32:20.413Z,6.63
2022-07-30T01:33:54.551Z,6.77
2022-07-30T01:35:30.485Z,6.40
2022-07-30T01:37:08.434Z,6.87
2022-07-30T01:38:44.245Z,6.70
2022-07-30T01:40:17.853Z,6.20
2022-07-30T01:41:53.007Z,6.43
2022-07-30T01:43:28.054Z,6.67
2022-07-30T01:45:03.125Z,6.57
2022-07-30T01:46:35.514Z,6.60
2022-07-30T01:48:12.223Z,6.63
2022-07-30T01:49:48.350Z,7.13
2022-07-30T01:51:21.983Z,7.23
2022-07-30T01:52:59.398Z,7.13
2022-07-30T01:54:34.757Z,6.77
2022-07-30T01:56:11.461Z,7.47
2022-07-30T01:57:49.519Z,6.87
2022-07-30T01:59:25.144Z,6.83
2022-07-30T02:00:59.375Z,6.70
2022-07-30T02:02:35.867Z,6.63
2022-07-30T02:04:09.094Z,7.30
2022-07-30T02:05:45.287Z,7.07
2022-07-30T02:07:23.141Z,7.20
2022-07-30T02:09:00.448Z,7.07
2022-07-30T02:10:45.230Z,6.60
2022-07-30T02:12:31.028Z,7.30
2022-07-30T02:14:15.500Z,7.27
2022-07-30T02:15:53.948Z,7.00
2022-07-30T02:17:39.543Z,7.17
2022-07-30T02:19:16.012Z,6.77
2022-07-30T02:20:57.544Z,7.20
2022-07-30T02:22:34.825Z,6.73
2022-07-30T02:24:13.387Z,6.80
2022-07-30T02:25:51.657Z,7.40
2022-07-30T02:27:32.096Z,6.70
2022-07-30T02:29:11.389Z,6.70
2022-07-30T02:30:59.022Z,7.40
2022-07-30T02:32:37.218Z,6.43
2022-07-30T02:34:12.139Z,7.00
2022-07-30T02:35:47.430Z,7.07
2022-07-30T02:37:43.271Z,7.17
2022-07-30T02:39:17.863Z,7.37
2022-07-30T02:40:51.522Z,7.67
2022-07-30T02:42:25.506Z,7.33
2022-07-30T02:43:59.669Z,7.43
2022-07-30T02:45:37.125Z,7.90
2022-07-30T02:47:10.559Z,7.60
2022-07-30T02:49:08.165Z,7.23
2022-07-30T02:50:42.372Z,7.77
2022-07-30T02:52:17.802Z,7.40
2022-07-30T02:53:52.895Z,7.73
2022-07-30T02:55:31.272Z,8.10
2022-07-30T02:57:05.693Z,7.83
2022-07-30T02:58:40.373Z,8.20
2022-07-30T03:00:14.420Z,7.30
2022-07-30T03:01:50.355Z,7.73
2022-07-30T03:03:28.955Z,8.03
2022-07-30T03:05:05.358Z,7.93
2022-07-30T03:06:39.069Z,8.03
2022-07-30T03:08:13.463Z,8.50
2022-07-30T03:09:55.997Z,8.13
2022-07-30T03:11:32.214Z,8.67
2022-07-30T03:13:07.937Z,8.83
2022-07-30T03:14:40.743Z,8.37
2022-07-30T03:16:14.937Z,9.13
2022-07-30T03:17:55.554Z,8.77
2022-07-30T03:19:32.799Z,8.57
2022-07-30T03:21:09.671Z,8.80
2022-07-30T03:22:47.037Z,9.50
2022-07-30T03:24:21.312Z,9.43
2022-07-30T03:25:58.391Z,9.47
2022-07-30T03:27:33.246Z,9.37
2022-07-30T03:29:08.582Z,9.07
2022-07-30T03:30:45.274Z,9.60
2022-07-30T03:32:19.441Z,9.70
2022-07-30T03:34:01.207Z,9.73
2022-07-30T03:35:34.730Z,11.00
2022-07-30T03:37:08.499Z,9.90
2022-07-30T03:38:43.405Z,10.37
2022-07-30T03:40:17.761Z,9.80
2022-07-30T03:41:51.417Z,9.90
2022-07-30T03:43:33.542Z,10.53
2022-07-30T03:45:10.159Z,10.13
2022-07-30T03:46:43.231Z,10.33
2022-07-30T03:48:17.305Z,10.40
2022-07-30T03:49:54.902Z,10.93
2022-07-30T03:51:32.941Z,10.77
2022-07-30T03:53:07.897Z,11.50
2022-07-30T03:54:56.411Z,10.57
2022-07-30T03:56:52.812Z,11.83
2022-07-30T03:58:38.068Z,12.10
2022-07-30T04:00:15.696Z,12.03
2022-07-30T04:01:55.251Z,11.37
2022-07-30T04:03:46.388Z,11.33
2022-07-30T04:05:21.634Z,11.50
2022-07-30T04:06:56.738Z,11.87
2022-07-30T04:08:29.240Z,11.97
2022-07-30T04:10:02.551Z,11.60
2022-07-30T04:12:00.988Z,11.50
2022-07-30T04:13:39.330Z,12.17
2022-07-30T04:16:40.510Z,11.70
2022-07-30T04:17:09.866Z,12.20
2022-07-30T04:18:47.733Z,12.10
2022-07-30T04:20:25.161Z,11.77
2022-07-30T04:21:59.692Z,11.73
2022-07-30T04:23:34.193Z,11.40
2022-07-30T04:25:28.255Z,12.40
2022-07-30T04:27:03.154Z,13.10
2022-07-30T04:28:38.138Z,13.43
2022-07-30T04:30:12.359Z,13.57
2022-07-30T04:31:46.650Z,13.53
2022-07-30T04:33:39.096Z,13.90
2022-07-30T04:35:49.813Z,14.10
2022-07-30T04:37:26.432Z,13.53
2022-07-30T04:39:01.417Z,13.87
2022-07-30T04:40:34.673Z,13.70
2022-07-30T04:42:08.320Z,14.80
2022-07-30T04:43:42.970Z,13.23
2022-07-30T04:45:16.592Z,13.70
2022-07-30T04:46:58.327Z,14.40
2022-07-30T04:48:31.814Z,14.67
2022-07-30T04:50:27.423Z,14.33
2022-07-30T04:52:03.738Z,13.63
2022-07-30T04:53:37.704Z,13.10
2022-07-30T04:55:12.860Z,14.47
2022-07-30T04:56:52.544Z,13.67
2022-07-30T04:58:28.833Z,13.63
2022-07-30T05:00:02.284Z,13.13
2022-07-30T05:01:40.824Z,12.93
2022-07-30T05:03:17.644Z,12.63
2022-07-30T05:04:57.304Z,11.83
2022-07-30T05:06:35.426Z,12.53
2022-07-30T05:08:09.407Z,11.97
2022-07-30T05:09:43.759Z,12.20
2022-07-30T05:11:17.854Z,11.70
2022-07-30T05:12:51.399Z,11.73
2022-07-30T05:14:28.618Z,11.37
2022-07-30T05:16:02.013Z,11.87
2022-07-30T05:23:50.227Z,10.77
2022-07-30T05:25:44.538Z,10.67
2022-07-30T05:27:22.524Z,10.13
2022-07-30T05:28:57.019Z,10.73
2022-07-30T05:30:38.211Z,10.20
2022-07-30T05:32:17.116Z,10.80
2022-07-30T05:33:51.761Z,10.47
2022-07-30T05:35:25.114Z,9.90
2022-07-30T05:36:58.655Z,9.07
2022-07-30T05:38:32.516Z,10.63
2022-07-30T05:40:26.001Z,9.73
2022-07-30T05:42:19.210Z,9.60
2022-07-30T05:43:58.393Z,9.57
2022-07-30T05:45:31.671Z,9.63
2022-07-30T05:47:05.040Z,8.87
2022-07-30T05:48:38.780Z,8.90
2022-07-30T05:50:12.734Z,8.97
2022-07-30T05:51:47.111Z,9.47
2022-07-30T05:53:20.461Z,8.83
2022-07-30T05:55:10.441Z,8.27
2022-07-30T05:57:01.507Z,8.70
2022-07-30T05:58:44.171Z,8.77
2022-07-30T06:00:20.599Z,8.73
2022-07-30T06:02:01.865Z,8.20
2022-07-30T06:03:45.599Z,8.03
2022-07-30T06:05:37.592Z,7.57
2022-07-30T06:07:11.079Z,7.80
2022-07-30T06:08:44.425Z,8.47
2022-07-30T06:10:16.836Z,7.97
2022-07-30T06:11:50.082Z,7.37
2022-07-30T06:13:25.674Z,7.20
2022-07-30T06:14:59.572Z,8.50
2022-07-30T06:16:36.635Z,7.87
2022-07-30T06:18:09.942Z,8.37
2022-07-30T06:19:48.657Z,8.13
2022-07-30T06:21:22.095Z,8.10
2022-07-30T06:23:21.251Z,7.37
2022-07-30T06:25:12.943Z,8.37
2022-07-30T06:26:52.090Z,7.90
2022-07-30T06:28:37.721Z,7.93
2022-07-30T06:30:19.176Z,7.90
2022-07-30T06:31:52.586Z,8.00
2022-07-30T06:33:26.189Z,8.73
2022-07-30T06:35:04.341Z,7.83
2022-07-30T06:36:38.632Z,8.13
2022-07-30T06:38:17.988Z,11.50
2022-07-30T06:40:02.068Z,7.90
2022-07-30T06:41:58.780Z,8.23
2022-07-30T06:43:50.976Z,7.50
2022-07-30T06:45:45.013Z,8.43
2022-07-30T06:47:28.511Z,8.40
2022-07-30T06:49:02.271Z,7.70
2022-07-30T06:50:37.199Z,7.83
2022-07-30T06:52:11.872Z,7.43
2022-07-30T06:53:52.186Z,7.83
2022-07-30T06:56:00.182Z,8.67
2022-07-30T06:57:42.548Z,7.97
2022-07-30T06:59:55.995Z,7.93
2022-07-30T07:01:47.039Z,8.00
2022-07-30T07:03:20.179Z,8.73
2022-07-30T07:04:54.111Z,7.63
2022-07-30T07:06:27.513Z,7.80
2022-07-30T07:08:00.925Z,7.43
2022-07-30T07:09:44.775Z,8.13
2022-07-30T07:11:47.582Z,7.60
2022-07-30T07:13:24.671Z,7.57
2022-07-30T07:14:59.841Z,7.73
2022-07-30T07:16:33.231Z,8.20
2022-07-30T07:18:15.328Z,7.97
2022-07-30T07:20:00.990Z,7.43
2022-07-30T07:21:39.502Z,7.67
2022-07-30T07:23:13.080Z,7.07
2022-07-30T07:24:48.100Z,7.40
2022-07-30T07:26:27.996Z,7.67
2022-07-30T07:28:11.994Z,7.37
2022-07-30T07:30:01.718Z,7.60
2022-07-30T07:32:05.930Z,8.13
2022-07-30T07:33:36.458Z,8.10
2022-07-30T07:35:10.543Z,7.37
2022-07-30T07:36:50.383Z,6.83
2022-07-30T07:38:23.840Z,7.50
2022-07-30T07:39:59.327Z,7.43
2022-07-30T07:41:49.283Z,7.17
2022-07-30T07:43:28.317Z,7.87
2022-07-30T07:45:04.484Z,7.57
2022-07-30T07:46:45.274Z,6.83
2022-07-30T07:48:20.632Z,7.43
2022-07-30T07:50:18.518Z,7.37
2022-07-30T07:51:52.146Z,6.90
2022-07-30T07:53:27.450Z,7.23
2022-07-30T07:55:01.113Z,7.23
2022-07-30T07:56:36.990Z,7.53
2022-07-30T07:58:13.662Z,8.03
2022-07-30T07:59:54.292Z,7.57
2022-07-30T08:01:33.124Z,8.20
2022-07-30T08:03:37.082Z,8.40
2022-07-30T08:05:58.129Z,8.27
2022-07-30T08:07:35.927Z,8.03
2022-07-30T08:09:43.889Z,8.00
2022-07-30T08:11:33.287Z,8.23
2022-07-30T08:13:52.399Z,8.60
2022-07-30T08:15:46.914Z,8.03
2022-07-30T08:17:42.116Z,9.10
2022-07-30T08:19:21.221Z,8.80
2022-07-30T08:21:02.758Z,9.10
2022-07-30T08:22:38.181Z,8.40
2022-07-30T08:24:11.607Z,8.50
2022-07-30T08:25:44.854Z,8.47
2022-07-30T08:27:19.005Z,8.77
2022-07-30T08:28:54.413Z,8.23
2022-07-30T08:30:28.564Z,8.73
2022-07-30T08:32:03.658Z,7.70
2022-07-30T08:33:37.313Z,8.93
2022-07-30T08:35:12.796Z,8.27
2022-07-30T08:36:47.333Z,8.43
2022-07-30T08:38:21.829Z,8.40
2022-07-30T08:39:57.209Z,8.13
2022-07-30T08:41:31.124Z,8.67
2022-07-30T08:43:06.937Z,8.50
2022-07-30T08:44:42.598Z,7.73
2022-07-30T08:46:19.077Z,8.57
2022-07-30T08:48:01.001Z,8.50
2022-07-30T08:49:58.067Z,9.20
2022-07-30T08:51:35.822Z,9.30
2022-07-30T08:53:27.559Z,10.23
2022-07-30T08:55:02.018Z,10.13
2022-07-30T08:56:35.824Z,9.23
2022-07-30T08:58:29.187Z,9.57
2022-07-30T09:00:03.544Z,10.30
2022-07-30T09:01:37.517Z,9.50
2022-07-30T09:03:10.887Z,8.83
2022-07-30T09:04:44.188Z,9.80
2022-07-30T09:06:17.626Z,9.67
2022-07-30T09:07:52.685Z,9.90
2022-07-30T09:09:29.091Z,11.03
2022-07-30T09:11:05.025Z,9.17
2022-07-30T09:12:43.728Z,10.60
2022-07-30T09:14:17.319Z,9.37
2022-07-30T09:15:50.761Z,9.87
2022-07-30T09:17:24.286Z,9.60
2022-07-30T09:18:57.813Z,9.97
2022-07-30T09:20:32.821Z,9.60
2022-07-30T09:22:06.877Z,9.50
2022-07-30T09:24:03.305Z,9.13
2022-07-30T09:25:57.052Z,9.03
2022-07-30T09:27:59.564Z,9.17
2022-07-30T09:29:59.384Z,10.00
2022-07-30T09:31:55.723Z,8.60
2022-07-30T09:33:48.408Z,9.27
2022-07-30T09:35:41.139Z,9.07
2022-07-30T09:37:20.713Z,9.13
2022-07-30T09:39:37.467Z,8.90
2022-07-30T09:41:39.166Z,10.13
2022-07-30T09:43:18.521Z,9.40
2022-07-30T09:45:07.442Z,9.77
2022-07-30T09:46:45.497Z,9.23
2022-07-30T09:48:24.560Z,9.13
2022-07-30T09:50:07.124Z,8.90
2022-07-30T09:51:54.658Z,8.03
2022-07-30T09:53:32.552Z,8.20
2022-07-30T09:55:08.537Z,8.67
2022-07-30T09:56:53.802Z,8.17
2022-07-30T09:58:40.155Z,8.33
2022-07-30T10:00:23.823Z,8.40
2022-07-30T10:02:12.959Z,8.60
2022-07-30T10:04:27.167Z,8.87
2022-07-30T10:06:12.003Z,8.23
2022-07-30T10:07:53.225Z,8.10
2022-07-30T10:09:28.087Z,8.40
2022-07-30T10:11:08.694Z,8.33
2022-07-30T10:12:44.110Z,8.30
2022-07-30T10:14:30.615Z,9.20
2022-07-30T10:16:05.512Z,9.90
2022-07-30T10:17:42.580Z,10.53
2022-07-30T10:19:49.224Z,10.37
2022-07-30T10:21:32.569Z,11.60
2022-07-30T10:23:29.695Z,10.50
2022-07-30T10:25:29.845Z,11.73
2022-07-30T10:27:40.387Z,23.23
2022-07-30T10:29:33.834Z,12.33
2022-07-30T10:31:08.470Z,12.23
2022-07-30T10:33:01.975Z,12.67
2022-07-30T10:34:36.365Z,12.40
2022-07-30T10:36:16.089Z,12.50
2022-07-30T10:37:52.987Z,12.40
2022-07-30T10:39:34.706Z,13.13
2022-07-30T10:41:12.756Z,10.90
2022-07-30T10:43:31.846Z,11.77
2022-07-30T10:45:19.730Z,10.73
2022-07-30T10:47:06.925Z,11.30
2022-07-30T10:48:41.863Z,10.20
2022-07-30T10:50:17.769Z,10.30
2022-07-30T10:51:55.407Z,10.57
2022-07-30T10:53:34.891Z,10.20
2022-07-30T10:55:15.803Z,10.03
2022-07-30T10:57:05.160Z,9.73
2022-07-30T10:58:58.741Z,9.10
2022-07-30T11:00:34.149Z,9.10
2022-07-30T11:02:10.301Z,9.70
2022-07-30T11:03:45.089Z,9.03
2022-07-30T11:05:43.830Z,8.47
2022-07-30T11:07:31.668Z,8.47
2022-07-30T11:09:36.122Z,8.30
2022-07-30T11:12:01.126Z,8.60
2022-07-30T11:13:54.589Z,8.67
2022-07-30T11:15:56.549Z,8.57
2022-07-30T11:18:12.288Z,8.57
2022-07-30T11:20:11.949Z,8.50
2022-07-30T11:21:47.822Z,9.27
2022-07-30T11:23:45.920Z,8.63
2022-07-30T11:25:50.625Z,8.07
2022-07-30T11:27:41.281Z,7.00
2022-07-30T11:29:50.606Z,8.53
2022-07-30T11:31:55.623Z,7.63
2022-07-30T11:33:32.925Z,7.27
2022-07-30T11:35:25.385Z,7.53
2022-07-30T11:37:19.173Z,6.93
2022-07-30T11:39:05.099Z,7.23
2022-07-30T11:40:56.617Z,7.77
2022-07-30T11:42:31.803Z,7.20
2022-07-30T11:44:27.012Z,6.77
2022-07-30T11:46:10.375Z,7.60
2022-07-30T11:47:44.022Z,7.50
2022-07-30T11:49:18.004Z,7.67
2022-07-30T11:50:51.395Z,7.20
2022-07-30T11:52:24.716Z,7.63
2022-07-30T11:54:05.731Z,7.57
2022-07-30T11:55:40.427Z,7.30
2022-07-30T11:57:13.703Z,7.77
2022-07-30T11:58:47.100Z,7.57
2022-07-30T12:00:19.803Z,7.27
2022-07-30T12:01:56.978Z,7.53
2022-07-30T12:03:32.796Z,7.30
2022-07-30T12:05:06.542Z,6.63
2022-07-30T12:06:45.899Z,7.57
2022-07-30T12:08:35.309Z,6.63
2022-07-30T12:10:17.879Z,7.23
2022-07-30T12:12:01.179Z,6.60
2022-07-30T12:13:44.961Z,6.93
2022-07-30T12:15:33.788Z,7.33
2022-07-30T12:17:15.230Z,7.67
2022-07-30T12:18:50.256Z,7.43
2022-07-30T12:20:24.669Z,7.80
2022-07-30T12:22:00.922Z,7.57
2022-07-30T12:23:34.330Z,7.57
2022-07-30T12:25:09.461Z,6.90
2022-07-30T12:26:43.027Z,6.57
2022-07-30T12:28:45.961Z,6.93
2022-07-30T12:30:21.585Z,6.00
2022-07-30T12:31:54.815Z,5.67
2022-07-30T12:33:29.576Z,5.30
2022-07-30T12:35:01.820Z,5.60
2022-07-30T12:36:36.489Z,6.10
2022-07-30T12:38:09.641Z,5.77
2022-07-30T12:39:42.770Z,6.03
2022-07-30T12:41:16.102Z,5.90
2022-07-30T12:42:52.670Z,5.77
2022-07-30T12:44:36.256Z,6.20
2022-07-30T12:46:14.526Z,6.10
2022-07-30T12:47:51.772Z,5.90
2022-07-30T12:49:36.684Z,6.50
2022-07-30T12:51:19.219Z,6.20
2022-07-30T12:52:53.927Z,5.20
2022-07-30T12:54:27.468Z,5.50
2022-07-30T12:56:12.936Z,5.13
2022-07-30T12:58:05.529Z,6.07
2022-07-30T12:59:41.007Z,6.37
2022-07-30T13:01:15.157Z,6.40
2022-07-30T13:02:48.647Z,6.90
2022-07-30T13:04:22.059Z,6.43
2022-07-30T13:05:58.166Z,5.60
2022-07-30T13:07:32.238Z,6.50
2022-07-30T13:09:06.014Z,6.83
2022-07-30T13:10:38.855Z,7.00
2022-07-30T13:12:14.162Z,7.17
2022-07-30T13:13:48.057Z,6.50
2022-07-30T13:15:22.245Z,6.53
2022-07-30T13:16:56.070Z,6.30
2022-07-30T13:18:30.225Z,6.70
2022-07-30T13:20:03.376Z,6.03
2022-07-30T13:21:38.353Z,6.40
2022-07-30T13:23:11.512Z,6.00
2022-07-30T13:24:44.721Z,6.07
2022-07-30T13:26:17.861Z,6.33
2022-07-30T13:27:51.281Z,6.27
2022-07-30T13:29:24.477Z,6.23
2022-07-30T13:30:58.076Z,6.63
2022-07-30T13:32:31.424Z,6.57
2022-07-30T13:34:04.751Z,6.57
2022-07-30T13:35:37.871Z,6.70
2022-07-30T13:37:12.649Z,5.93
2022-07-30T13:38:46.048Z,6.90
2022-07-30T13:40:25.375Z,6.63
2022-07-30T13:41:58.515Z,6.10
2022-07-30T13:43:33.554Z,5.87
2022-07-30T13:45:08.389Z,6.37
2022-07-30T13:46:41.831Z,7.03
2022-07-30T13:48:15.187Z,6.60
2022-07-30T13:49:49.728Z,5.30
2022-07-30T13:51:22.885Z,4.63
2022-07-30T13:53:01.850Z,4.40
2022-07-30T13:54:35.350Z,4.70
2022-07-30T13:56:12.577Z,5.10
2022-07-30T13:57:46.642Z,4.50
2022-07-30T13:59:19.760Z,4.17
2022-07-30T14:00:52.954Z,3.53
2022-07-30T14:02:26.118Z,3.43
2022-07-30T14:04:01.292Z,4.00
2022-07-30T14:05:35.989Z,3.90
2022-07-30T14:07:15.557Z,3.70
2022-07-30T14:08:50.098Z,3.50
2022-07-30T14:10:23.421Z,4.80
2022-07-30T14:11:56.569Z,6.30
2022-07-30T14:13:30.154Z,7.10
2022-07-30T14:15:03.481Z,7.00
2022-07-30T14:16:45.083Z,6.40
2022-07-30T14:18:18.868Z,6.40
2022-07-30T14:19:54.387Z,4.40
2022-07-30T14:21:27.606Z,6.37
2022-07-30T14:27:12.590Z,3.80
2022-07-30T14:28:45.712Z,3.70
2022-07-30T14:30:19.622Z,3.83
2022-07-30T14:31:52.929Z,3.03
2022-07-30T14:33:26.080Z,3.80
2022-07-30T14:34:59.331Z,3.70
2022-07-30T14:36:32.583Z,3.27
2022-07-30T14:38:05.954Z,3.33
2022-07-30T14:39:39.074Z,3.20
2022-07-30T14:41:12.623Z,3.60
2022-07-30T14:42:48.153Z,3.27
2022-07-30T14:44:20.287Z,3.60
2022-07-30T14:45:53.468Z,3.00
2022-07-30T14:47:26.632Z,3.17
2022-07-30T14:48:59.801Z,2.97
2022-07-30T14:50:32.957Z,3.10
2022-07-30T14:52:06.378Z,3.00
2022-07-30T14:53:39.548Z,2.73
2022-07-30T14:55:13.258Z,2.83
2022-07-30T14:56:45.483Z,3.00
2022-07-30T14:58:19.996Z,2.80
2022-07-30T14:59:53.141Z,2.70
2022-07-30T15:01:26.517Z,2.70
2022-07-30T15:02:59.737Z,2.43
2022-07-30T15:04:32.895Z,3.07
2022-07-30T15:06:05.104Z,3.03
2022-07-30T15:07:38.399Z,2.87
2022-07-30T15:09:12.143Z,3.20
2022-07-30T15:10:45.270Z,3.27
2022-07-30T15:12:23.566Z,3.00
2022-07-30T15:14:01.948Z,2.43
2022-07-30T15:15:38.097Z,2.80
2022-07-30T15:17:11.534Z,2.93
2022-07-30T15:18:44.892Z,2.70
2022-07-30T15:20:19.047Z,2.80
2022-07-30T15:21:52.212Z,2.40
2022-07-30T15:23:25.337Z,2.63
2022-07-30T15:24:58.478Z,2.77
2022-07-30T15:26:31.977Z,2.60
2022-07-30T15:28:05.671Z,2.80
2022-07-30T15:29:40.166Z,2.70
2022-07-30T15:31:13.407Z,2.80
2022-07-30T15:32:46.497Z,2.80
2022-07-30T15:34:19.714Z,2.90
2022-07-30T15:35:53.067Z,3.17
2022-07-30T15:37:26.265Z,2.50
2022-07-30T15:38:59.423Z,3.00
2022-07-30T15:40:32.549Z,2.70
2022-07-30T15:42:07.060Z,2.80
2022-07-30T15:43:40.360Z,2.70
2022-07-30T15:45:17.830Z,2.87
2022-07-30T15:46:51.494Z,2.90
2022-07-30T15:48:27.219Z,2.83
2022-07-30T15:50:00.694Z,2.80
2022-07-30T15:51:35.346Z,2.80
2022-07-30T15:53:13.571Z,2.30
2022-07-30T15:54:50.581Z,2.40
2022-07-30T15:56:24.321Z,2.67
2022-07-30T15:57:57.640Z,2.50
2022-07-30T15:59:31.429Z,2.70
2022-07-30T16:01:06.259Z,2.70
2022-07-30T16:02:39.596Z,2.60
2022-07-30T16:04:18.922Z,2.40
2022-07-30T16:05:53.559Z,2.27
2022-07-30T16:07:26.723Z,2.33
2022-07-30T16:09:00.014Z,2.50
2022-07-30T16:10:34.557Z,2.30
2022-07-30T16:12:07.997Z,2.37
2022-07-30T16:13:41.134Z,2.50
2022-07-30T16:15:14.371Z,2.33
2022-07-30T16:16:50.981Z,2.43
2022-07-30T16:18:24.105Z,2.17
2022-07-30T16:19:57.268Z,2.10
2022-07-30T16:21:30.433Z,2.47
2022-07-30T16:23:03.813Z,2.23
2022-07-30T16:24:37.398Z,2.43
2022-07-30T16:26:10.994Z,2.20
2022-07-30T16:27:44.115Z,2.13
2022-07-30T16:29:17.868Z,2.50
2022-07-30T16:30:51.758Z,2.27
2022-07-30T16:32:26.495Z,2.20
2022-07-30T16:33:59.624Z,2.47
2022-07-30T16:35:32.758Z,2.53
2022-07-30T16:37:05.919Z,2.47
2022-07-30T16:38:39.113Z,2.40
2022-07-30T16:40:13.214Z,2.33
2022-07-30T16:41:46.345Z,2.27
2022-07-30T16:43:20.342Z,2.50
2022-07-30T16:44:53.544Z,2.60
2022-07-30T16:46:26.794Z,2.60
2022-07-30T16:48:01.336Z,2.33
2022-07-30T16:49:34.605Z,2.33
2022-07-30T16:51:08.287Z,2.80
2022-07-30T16:52:43.018Z,2.70
2022-07-30T16:54:16.198Z,2.47
2022-07-30T16:55:49.476Z,2.50
2022-07-30T16:57:22.612Z,2.87
2022-07-30T16:58:55.785Z,2.30
2022-07-30T17:00:29.632Z,2.50
2022-07-30T17:02:03.692Z,2.60
2022-07-30T17:03:38.452Z,2.97
2022-07-30T17:05:13.792Z,2.37
2022-07-30T17:06:47.221Z,2.70
2022-07-30T17:08:24.971Z,2.60
2022-07-30T17:09:58.798Z,2.50
2022-07-30T17:11:51.872Z,2.70
2022-07-30T17:13:25.753Z,2.60
2022-07-30T17:14:58.959Z,2.47
2022-07-30T17:16:32.657Z,2.70
2022-07-30T17:18:06.096Z,2.30
2022-07-30T17:19:40.823Z,2.23
2022-07-30T17:21:14.226Z,2.60
2022-07-30T17:22:47.363Z,2.57
2022-07-30T17:24:20.916Z,2.53
2022-07-30T17:25:54.090Z,2.60
2022-07-30T17:27:28.268Z,2.50
2022-07-30T17:29:01.441Z,2.77
2022-07-30T17:30:34.876Z,2.80
2022-07-30T17:32:08.266Z,2.80
2022-07-30T17:33:41.633Z,2.60
2022-07-30T17:35:16.309Z,2.50
2022-07-30T17:36:52.464Z,2.50
2022-07-30T17:38:28.311Z,2.87
2022-07-30T17:40:27.871Z,2.40
2022-07-30T17:41:55.542Z,2.60
2022-07-30T17:43:35.826Z,2.60
2022-07-30T17:45:09.872Z,2.83
2022-07-30T17:46:43.013Z,2.83
2022-07-30T17:48:18.037Z,2.50
2022-07-30T17:49:51.176Z,2.60
2022-07-30T17:51:25.810Z,3.27
2022-07-30T17:52:59.381Z,2.60
2022-07-30T17:54:32.142Z,2.60
2022-07-30T17:56:06.061Z,2.87
2022-07-30T17:57:41.801Z,2.80
2022-07-30T17:59:15.139Z,2.33
2022-07-30T18:00:48.370Z,3.40
2022-07-30T18:02:27.558Z,2.87
2022-07-30T18:04:02.245Z,3.30
2022-07-30T18:05:35.436Z,3.00
2022-07-30T18:07:09.957Z,3.20
2022-07-30T18:08:43.089Z,3.03
2022-07-30T18:10:16.275Z,3.07
2022-07-30T18:11:49.565Z,2.90
2022-07-30T18:13:26.665Z,3.20
2022-07-30T18:15:00.589Z,3.07
2022-07-30T18:16:34.150Z,3.00
2022-07-30T18:18:07.422Z,2.77
2022-07-30T18:19:40.857Z,3.13
2022-07-30T18:21:14.134Z,3.10
2022-07-30T18:22:51.466Z,3.57
2022-07-30T18:24:25.134Z,3.53
2022-07-30T18:25:58.341Z,3.50
2022-07-30T18:27:31.539Z,3.40
2022-07-30T18:29:03.828Z,3.83
2022-07-30T18:30:37.077Z,4.30
2022-07-30T18:32:10.467Z,4.37
2022-07-30T18:33:43.664Z,4.40
2022-07-30T18:35:17.142Z,3.40
2022-07-30T18:36:51.312Z,3.20
2022-07-30T18:38:25.843Z,3.60
2022-07-30T18:39:58.973Z,4.13
2022-07-30T18:41:34.179Z,4.90
2022-07-30T18:43:07.549Z,6.83
2022-07-30T18:44:40.680Z,6.63
2022-07-30T18:46:14.613Z,7.60
2022-07-30T18:47:48.803Z,8.00
2022-07-30T18:49:35.962Z,7.60
2022-07-30T18:51:13.868Z,7.90
2022-07-30T18:52:47.346Z,7.90
2022-07-30T18:54:21.883Z,8.50
2022-07-30T18:55:55.228Z,8.83
2022-07-30T18:57:28.438Z,9.27
2022-07-30T18:59:01.616Z,8.90
2022-07-30T19:00:35.857Z,9.87
2022-07-30T19:02:09.591Z,9.47
2022-07-30T19:03:42.710Z,9.67
2022-07-30T19:05:16.825Z,9.57
2022-07-30T19:06:49.951Z,9.50
2022-07-30T19:08:24.476Z,9.37
2022-07-30T19:09:59.025Z,9.73
2022-07-30T19:11:32.170Z,10.20
2022-07-30T19:13:05.594Z,10.57
2022-07-30T19:14:38.845Z,10.20
2022-07-30T19:16:12.079Z,10.00
2022-07-30T19:17:46.818Z,10.93
2022-07-30T19:19:20.461Z,11.30
2022-07-30T19:20:53.549Z,10.87
2022-07-30T19:22:29.702Z,11.40
2022-07-30T19:24:03.809Z,11.40
2022-07-30T19:25:39.220Z,10.87
2022-07-30T19:27:14.264Z,10.87
2022-07-30T19:28:47.605Z,11.30
2022-07-30T19:30:20.979Z,12.07
2022-07-30T19:31:54.100Z,10.93
2022-07-30T19:33:27.400Z,10.63
2022-07-30T19:35:00.692Z,10.77
2022-07-30T19:36:34.145Z,10.07
2022-07-30T19:38:07.579Z,10.43
2022-07-30T19:39:58.903Z,10.67
2022-07-30T19:41:40.883Z,11.07
2022-07-30T19:43:14.187Z,10.33
2022-07-30T19:44:47.827Z,10.60
2022-07-30T19:46:21.752Z,10.63
2022-07-30T19:47:57.441Z,10.33
2022-07-30T19:49:30.725Z,9.83
2022-07-30T19:51:12.265Z,9.80
2022-07-30T19:52:54.789Z,10.00
2022-07-30T19:54:27.892Z,10.13
2022-07-30T19:56:04.530Z,10.40
2022-07-30T19:57:52.984Z,10.50
2022-07-30T19:59:55.803Z,10.23
2022-07-30T20:01:20.969Z,11.13
2022-07-30T20:02:56.220Z,10.03
2022-07-30T20:04:32.439Z,10.70
2022-07-30T20:06:07.619Z,10.57
2022-07-30T20:07:40.878Z,10.40
2022-07-30T20:09:16.157Z,10.67
2022-07-30T20:10:49.421Z,11.20
2022-07-30T20:14:17.969Z,10.93
2022-07-30T20:15:53.497Z,10.97
2022-07-30T20:17:27.350Z,10.70
2022-07-30T20:19:03.213Z,10.97
2022-07-30T20:20:37.833Z,11.10
2022-07-30T20:22:13.943Z,10.93
2022-07-30T20:23:48.689Z,10.87
2022-07-30T20:25:25.739Z,10.67
2022-07-30T20:26:59.284Z,11.80
2022-07-30T20:28:32.375Z,12.17
2022-07-30T20:30:10.337Z,12.40
2022-07-30T20:31:43.488Z,12.33
2022-07-30T20:33:26.791Z,12.17
2022-07-30T20:35:10.603Z,13.07
2022-07-30T20:36:43.761Z,12.73
2022-07-30T20:38:17.555Z,12.23
2022-07-30T20:39:55.493Z,12.17
2022-07-30T20:41:28.841Z,12.80
2022-07-30T20:43:05.510Z,13.50
2022-07-30T20:44:39.765Z,14.33
2022-07-30T20:46:18.002Z,12.63
2022-07-30T20:47:55.928Z,14.77
2022-07-30T20:49:34.003Z,13.77
2022-07-30T20:51:09.591Z,15.10
2022-07-30T20:52:46.751Z,14.27
2022-07-30T20:54:21.272Z,14.20
2022-07-30T20:55:54.388Z,12.40
2022-07-30T20:57:51.444Z,13.77
2022-07-30T20:59:23.725Z,13.73
2022-07-30T21:00:57.058Z,13.60
2022-07-30T21:02:31.886Z,13.87
2022-07-30T21:04:06.251Z,12.80
2022-07-30T21:05:43.049Z,14.33
2022-07-30T21:07:19.086Z,14.60
2022-07-30T21:08:55.258Z,13.43
2022-07-30T21:10:29.716Z,14.47
2022-07-30T21:12:03.821Z,14.47
2022-07-30T21:13:37.062Z,13.53
2022-07-30T21:15:23.359Z,13.57
2022-07-30T21:16:57.575Z,14.30
2022-07-30T21:18:32.937Z,14.77
2022-07-30T21:20:07.755Z,14.63
2022-07-30T21:21:48.221Z,15.47
2022-07-30T21:23:22.879Z,15.33
2022-07-30T21:24:55.973Z,14.93
2022-07-30T21:26:29.188Z,15.80
2022-07-30T21:28:03.320Z,15.70
2022-07-30T21:29:38.166Z,14.80
2022-07-30T21:31:11.308Z,17.80
2022-07-30T21:32:44.441Z,16.33
2022-07-30T21:34:18.977Z,16.27
2022-07-30T21:35:52.086Z,15.20
2022-07-30T21:37:27.026Z,16.03
2022-07-30T21:39:09.908Z,15.83
2022-07-30T21:40:46.846Z,16.53
2022-07-30T21:42:30.360Z,15.50
2022-07-30T21:44:03.670Z,14.90
2022-07-30T21:45:39.167Z,16.07
2022-07-30T21:47:13.241Z,15.50